createdAt,value
2017-08-29T03:30:49.701Z,20.50
2017-08-29T03:33:17.305Z,20.50
2017-08-29T03:35:44.913Z,20.30
2017-08-29T03:38:12.880Z,20.40
2017-08-29T03:40:40.477Z,20.30
2017-08-29T03:43:08.084Z,20.20
2017-08-29T03:45:36.086Z,20.30
2017-08-29T03:48:03.712Z,20.20
2017-08-29T03:50:31.315Z,20.10
2017-08-29T03:52:59.279Z,20.20
2017-08-29T03:55:26.909Z,20.30
2017-08-29T03:57:54.512Z,20.20
2017-08-29T04:00:22.556Z,20.20
2017-08-29T04:02:50.180Z,20.00
2017-08-29T04:05:17.793Z,19.90
2017-08-29T04:07:45.858Z,19.90
2017-08-29T04:10:13.474Z,20.10
2017-08-29T04:12:41.069Z,20.40
2017-08-29T04:15:09.050Z,20.60
2017-08-29T04:17:36.670Z,20.60
2017-08-29T04:20:04.276Z,20.50
2017-08-29T04:22:32.247Z,20.40
2017-08-29T04:24:59.875Z,20.50
2017-08-29T04:27:27.492Z,20.50
2017-08-29T04:29:55.537Z,20.70
2017-08-29T04:32:23.198Z,20.90
2017-08-29T04:34:50.818Z,21.00
2017-08-29T04:37:18.830Z,21.00
2017-08-29T04:39:46.463Z,21.00
2017-08-29T04:42:14.065Z,21.00
2017-08-29T04:44:42.045Z,21.00
2017-08-29T04:47:09.662Z,20.90
2017-08-29T04:49:37.275Z,20.90
2017-08-29T04:52:05.237Z,20.80
2017-08-29T04:54:32.841Z,20.70
2017-08-29T04:57:00.432Z,20.80
2017-08-29T04:59:28.402Z,20.90
2017-08-29T05:01:55.982Z,20.90
2017-08-29T05:04:23.588Z,21.10
2017-08-29T05:06:51.586Z,21.00
2017-08-29T05:09:19.170Z,21.00
2017-08-29T05:11:46.782Z,20.90
2017-08-29T05:14:14.742Z,20.70
2017-08-29T05:16:42.349Z,20.60
2017-08-29T05:19:09.968Z,20.60
2017-08-29T05:21:37.982Z,20.60
2017-08-29T05:24:05.592Z,20.80
2017-08-29T05:26:33.201Z,20.90
2017-08-29T05:29:01.269Z,20.90
2017-08-29T05:31:28.871Z,21.20
2017-08-29T05:33:56.463Z,21.40
2017-08-29T05:36:24.457Z,21.50
2017-08-29T05:38:52.070Z,21.60
2017-08-29T05:41:19.675Z,21.50
2017-08-29T05:43:47.653Z,21.50
2017-08-29T05:46:15.262Z,21.60
2017-08-29T05:48:42.883Z,21.90
2017-08-29T05:51:10.931Z,21.80
2017-08-29T05:53:38.556Z,21.90
2017-08-29T05:56:06.208Z,21.80
2017-08-29T05:58:34.190Z,21.80
2017-08-29T06:01:01.794Z,21.90
2017-08-29T06:03:29.414Z,22.00
2017-08-29T06:05:57.610Z,22.20
2017-08-29T06:08:25.220Z,22.30
2017-08-29T06:10:55.213Z,22.20
2017-08-29T06:13:23.227Z,22.20
2017-08-29T06:15:50.838Z,22.40
2017-08-29T06:18:18.478Z,22.60
2017-08-29T06:20:46.567Z,22.50
2017-08-29T06:23:14.243Z,22.50
2017-08-29T06:25:41.871Z,22.60
2017-08-29T06:28:09.865Z,22.80
2017-08-29T06:30:37.561Z,22.50
2017-08-29T06:33:05.186Z,22.50
2017-08-29T06:35:33.257Z,22.60
2017-08-29T06:38:00.932Z,22.70
2017-08-29T06:40:28.557Z,22.90
2017-08-29T06:42:56.580Z,23.20
2017-08-29T06:45:24.371Z,23.30
2017-08-29T06:47:51.990Z,23.20
2017-08-29T06:50:20.060Z,23.20
2017-08-29T06:52:47.676Z,23.30
2017-08-29T06:55:15.352Z,23.60
2017-08-29T06:57:43.451Z,23.70
2017-08-29T07:00:11.878Z,23.90
2017-08-29T07:02:39.484Z,23.90
2017-08-29T07:05:07.491Z,24.10
2017-08-29T07:07:35.104Z,24.10
2017-08-29T07:10:02.727Z,24.10
2017-08-29T07:12:30.763Z,24.20
2017-08-29T07:14:59.129Z,24.60
2017-08-29T07:17:26.733Z,24.60
2017-08-29T07:19:55.311Z,24.80
2017-08-29T07:22:22.918Z,24.90
2017-08-29T07:24:50.531Z,24.80
2017-08-29T07:27:18.507Z,24.80
2017-08-29T07:29:46.110Z,24.80
2017-08-29T07:32:13.737Z,25.10
2017-08-29T07:34:41.808Z,25.10
2017-08-29T07:37:09.504Z,25.30
2017-08-29T07:39:37.135Z,25.60
2017-08-29T07:42:05.299Z,25.80
2017-08-29T07:44:32.976Z,25.80
2017-08-29T07:47:00.625Z,26.00
2017-08-29T07:49:28.650Z,26.20
2017-08-29T07:51:56.363Z,26.20
2017-08-29T07:54:24.002Z,26.30
2017-08-29T07:56:52.034Z,26.40
2017-08-29T07:59:19.659Z,26.60
2017-08-29T08:01:47.447Z,26.70
2017-08-29T08:04:15.597Z,26.70
2017-08-29T08:06:43.310Z,26.80
2017-08-29T08:09:10.914Z,26.90
2017-08-29T08:11:38.929Z,27.00
2017-08-29T08:14:06.711Z,27.00
2017-08-29T08:16:34.322Z,27.20
2017-08-29T08:19:02.327Z,27.40
2017-08-29T08:21:29.935Z,27.30
2017-08-29T08:23:57.536Z,27.50
2017-08-29T08:26:25.630Z,27.60
2017-08-29T08:28:53.234Z,27.70
2017-08-29T08:31:20.833Z,27.80
2017-08-29T08:33:48.816Z,27.90
2017-08-29T08:36:16.421Z,28.10
2017-08-29T08:38:46.202Z,28.30
2017-08-29T08:41:14.542Z,28.50
2017-08-29T08:43:42.312Z,28.80
2017-08-29T08:46:09.923Z,28.90
2017-08-29T08:48:38.049Z,29.10
2017-08-29T08:51:06.742Z,29.20
2017-08-29T08:53:34.449Z,29.80
2017-08-29T08:56:02.702Z,30.70
2017-08-29T08:58:30.315Z,31.60
2017-08-29T09:00:58.115Z,32.10
2017-08-29T09:03:26.200Z,32.60
2017-08-29T09:05:53.888Z,33.40
2017-08-29T09:08:21.633Z,33.80
2017-08-29T09:10:49.683Z,34.00
2017-08-29T09:13:17.299Z,34.20
2017-08-29T09:15:44.913Z,33.80
2017-08-29T09:18:13.000Z,34.10
2017-08-29T09:20:40.623Z,35.40
2017-08-29T09:23:08.251Z,35.70
2017-08-29T09:25:36.468Z,35.90
2017-08-29T09:28:04.236Z,36.00
2017-08-29T09:30:31.838Z,36.10
2017-08-29T09:32:59.853Z,35.90
2017-08-29T09:35:27.486Z,37.10
2017-08-29T09:37:55.109Z,37.70
2017-08-29T09:40:23.059Z,38.30
2017-08-29T09:42:50.697Z,39.60
2017-08-29T09:45:18.300Z,40.70
2017-08-29T09:47:47.188Z,42.30
2017-08-29T09:50:14.800Z,42.30
2017-08-29T09:52:42.426Z,42.50
2017-08-29T09:55:10.381Z,41.40
2017-08-29T09:57:38.089Z,40.20
2017-08-29T10:00:05.721Z,40.60
2017-08-29T10:02:33.712Z,41.90
2017-08-29T10:05:01.326Z,42.50
2017-08-29T10:07:28.926Z,41.90
2017-08-29T10:09:56.988Z,38.60
2017-08-29T10:12:24.777Z,36.70
2017-08-29T10:14:52.479Z,38.90
2017-08-29T10:17:21.278Z,38.60
2017-08-29T10:19:48.894Z,38.70
2017-08-29T10:22:16.541Z,39.90
2017-08-29T10:24:44.563Z,37.90
2017-08-29T10:27:12.186Z,37.60
2017-08-29T10:29:39.824Z,38.90
2017-08-29T10:32:07.838Z,37.40
2017-08-29T10:34:35.445Z,37.60
2017-08-29T10:37:03.046Z,41.10
2017-08-29T10:39:31.041Z,40.70
2017-08-29T10:41:58.660Z,38.20
2017-08-29T10:44:26.319Z,36.30
2017-08-29T10:46:54.288Z,37.70
2017-08-29T10:49:22.095Z,41.20
2017-08-29T10:51:49.761Z,43.00
2017-08-29T10:54:17.718Z,42.50
2017-08-29T10:56:45.415Z,39.00
2017-08-29T10:59:13.139Z,38.80
2017-08-29T11:01:41.153Z,40.00
2017-08-29T11:04:08.933Z,38.20
2017-08-29T11:06:36.823Z,36.20
2017-08-29T11:09:04.773Z,36.90
2017-08-29T11:11:32.375Z,39.60
2017-08-29T11:13:59.988Z,42.40
2017-08-29T11:16:27.974Z,41.30
2017-08-29T11:18:55.590Z,39.40
2017-08-29T11:21:23.205Z,38.40
2017-08-29T11:23:51.474Z,40.60
2017-08-29T11:26:19.220Z,41.10
2017-08-29T11:28:46.913Z,42.70
2017-08-29T11:31:14.664Z,45.20
2017-08-29T11:33:42.456Z,46.70
2017-08-29T11:36:10.069Z,48.20
2017-08-29T11:38:37.979Z,49.20
2017-08-29T11:41:05.582Z,49.80
2017-08-29T11:43:33.256Z,49.40
2017-08-29T11:46:01.147Z,50.00
2017-08-29T11:48:28.742Z,50.60
2017-08-29T11:50:56.367Z,51.50
2017-08-29T11:53:24.309Z,52.40
2017-08-29T11:55:51.938Z,52.50
2017-08-29T11:58:19.564Z,51.40
2017-08-29T12:00:47.486Z,50.40
2017-08-29T12:03:15.271Z,50.50
2017-08-29T12:05:42.903Z,50.40
2017-08-29T12:08:10.874Z,50.90
2017-08-29T12:10:38.503Z,50.70
2017-08-29T12:13:06.113Z,50.80
2017-08-29T12:15:34.146Z,51.00
2017-08-29T12:18:02.297Z,50.30
2017-08-29T12:20:29.913Z,49.30
2017-08-29T12:22:57.917Z,48.10
2017-08-29T12:25:25.537Z,46.60
2017-08-29T12:27:53.144Z,45.40
2017-08-29T12:30:21.152Z,44.60
2017-08-29T12:32:48.854Z,43.20
2017-08-29T12:35:16.460Z,42.40
2017-08-29T12:37:44.483Z,41.60
2017-08-29T12:40:12.102Z,41.10
2017-08-29T12:42:39.711Z,40.60
2017-08-29T12:45:07.693Z,40.10
2017-08-29T12:47:35.355Z,39.70
2017-08-29T12:50:03.075Z,39.40
2017-08-29T12:52:31.031Z,38.60
2017-08-29T12:54:58.666Z,38.00
2017-08-29T12:57:26.289Z,37.50
2017-08-29T12:59:54.247Z,36.60
2017-08-29T13:02:21.853Z,36.10
2017-08-29T13:04:49.458Z,36.00
2017-08-29T13:07:17.516Z,35.40
2017-08-29T13:09:45.128Z,35.10
2017-08-29T13:12:12.729Z,34.60
2017-08-29T13:14:40.668Z,33.90
2017-08-29T13:17:08.723Z,33.50
2017-08-29T13:19:36.419Z,33.20
2017-08-29T13:22:04.517Z,33.20
2017-08-29T13:24:32.207Z,33.00
2017-08-29T13:27:00.333Z,32.90
2017-08-29T13:29:28.668Z,33.10
2017-08-29T13:31:56.274Z,32.80
2017-08-29T13:34:23.876Z,32.60
2017-08-29T13:36:51.897Z,32.70
2017-08-29T13:39:19.510Z,32.80
2017-08-29T13:41:47.883Z,33.00
2017-08-29T13:44:15.870Z,33.00
2017-08-29T13:46:44.035Z,32.90
2017-08-29T13:49:11.695Z,33.00
2017-08-29T13:51:39.726Z,32.50
2017-08-29T13:54:07.340Z,31.80
2017-08-29T13:56:34.927Z,31.70
2017-08-29T13:59:02.885Z,31.90
2017-08-29T14:01:30.493Z,32.10
2017-08-29T14:03:58.188Z,31.90
2017-08-29T14:06:26.368Z,31.30
2017-08-29T14:08:53.993Z,31.00
2017-08-29T14:11:21.595Z,30.90
2017-08-29T14:13:49.649Z,31.20
2017-08-29T14:16:17.269Z,31.20
2017-08-29T14:18:44.877Z,31.50
2017-08-29T14:21:12.899Z,31.20
2017-08-29T14:23:40.618Z,31.20
2017-08-29T14:26:08.204Z,31.40
2017-08-29T14:28:36.570Z,31.20
2017-08-29T14:31:04.208Z,31.20
2017-08-29T14:33:31.825Z,31.10
2017-08-29T14:35:59.854Z,31.00
2017-08-29T14:38:28.188Z,31.20
2017-08-29T14:40:56.791Z,31.20
2017-08-29T14:43:24.825Z,31.20
2017-08-29T14:45:52.438Z,31.30
2017-08-29T14:51:17.991Z,31.30
2017-08-29T14:53:46.109Z,31.30
2017-08-29T14:56:14.022Z,31.20
2017-08-29T14:58:41.636Z,31.10
2017-08-29T15:01:09.681Z,31.20
2017-08-29T15:03:37.295Z,31.20
2017-08-29T15:06:04.979Z,31.30
2017-08-29T15:08:32.962Z,31.20
2017-08-29T15:11:00.599Z,30.70
2017-08-29T15:13:28.198Z,30.40
2017-08-29T15:15:56.286Z,30.50
2017-08-29T15:18:24.099Z,30.70
2017-08-29T15:20:52.767Z,30.80
2017-08-29T15:23:24.848Z,30.70
2017-08-29T15:25:52.545Z,30.70
2017-08-29T15:28:20.157Z,30.50
2017-08-29T15:30:48.293Z,30.30
2017-08-29T15:33:16.050Z,30.30
2017-08-29T15:35:43.637Z,30.10
2017-08-29T15:38:11.604Z,30.30
2017-08-29T15:40:39.220Z,30.20
2017-08-29T15:43:06.818Z,30.20
2017-08-29T15:45:34.882Z,30.40
2017-08-29T15:48:02.484Z,30.20
2017-08-29T15:50:30.094Z,30.10
2017-08-29T15:52:58.168Z,30.00
2017-08-29T15:55:25.797Z,30.00
2017-08-29T15:57:53.415Z,30.00
2017-08-29T16:00:21.516Z,30.10
2017-08-29T16:02:49.148Z,30.20
2017-08-29T16:05:16.765Z,30.10
2017-08-29T16:07:44.776Z,30.00
2017-08-29T16:10:12.453Z,29.80
2017-08-29T16:12:40.068Z,30.00
2017-08-29T16:15:08.574Z,30.00
2017-08-29T16:17:36.197Z,30.00
2017-08-29T16:20:04.607Z,29.90
2017-08-29T16:22:32.574Z,29.90
2017-08-29T16:25:00.262Z,29.80
2017-08-29T16:27:27.899Z,29.90
2017-08-29T16:29:55.861Z,29.60
2017-08-29T16:32:23.500Z,29.70
2017-08-29T16:34:51.100Z,29.70
2017-08-29T16:37:19.194Z,29.90
2017-08-29T16:39:46.801Z,29.80
2017-08-29T16:42:14.413Z,29.80
2017-08-29T16:44:42.396Z,29.70
2017-08-29T16:47:09.997Z,29.60
2017-08-29T16:49:37.625Z,29.60
2017-08-29T16:52:05.632Z,29.60
2017-08-29T16:54:33.294Z,29.60
2017-08-29T16:57:00.909Z,29.60
2017-08-29T16:59:28.912Z,29.40
2017-08-29T17:01:56.572Z,29.30
2017-08-29T17:04:24.175Z,29.20
2017-08-29T17:06:52.184Z,29.10
2017-08-29T17:09:19.789Z,29.20
2017-08-29T17:11:47.394Z,29.10
2017-08-29T17:14:15.387Z,29.00
2017-08-29T17:16:43.141Z,29.00
2017-08-29T17:19:10.755Z,29.00
2017-08-29T17:21:38.726Z,28.90
2017-08-29T17:24:06.334Z,28.90
2017-08-29T17:26:33.977Z,28.90
2017-08-29T17:29:02.007Z,28.80
2017-08-29T17:31:29.621Z,28.70
2017-08-29T17:33:57.302Z,28.60
2017-08-29T17:36:25.385Z,28.60
2017-08-29T17:38:52.996Z,28.50
2017-08-29T17:41:21.369Z,28.30
2017-08-29T17:43:49.341Z,28.30
2017-08-29T17:46:16.940Z,28.20
2017-08-29T17:48:44.556Z,28.20
2017-08-29T17:51:12.549Z,28.20
2017-08-29T17:53:40.166Z,28.10
2017-08-29T17:56:08.023Z,28.00
2017-08-29T17:58:35.971Z,27.90
2017-08-29T18:01:03.661Z,27.70
2017-08-29T18:03:31.287Z,27.50
2017-08-29T18:05:59.302Z,27.30
2017-08-29T18:08:26.921Z,27.20
2017-08-29T18:10:54.568Z,27.10
2017-08-29T18:13:22.581Z,27.00
2017-08-29T18:15:50.230Z,26.90
2017-08-29T18:18:17.869Z,26.90
2017-08-29T18:20:45.914Z,26.80
2017-08-29T18:23:13.512Z,26.70
2017-08-29T18:25:41.125Z,26.80
2017-08-29T18:28:09.086Z,26.80
2017-08-29T18:30:36.710Z,26.70
2017-08-29T18:33:04.350Z,26.60
2017-08-29T18:35:33.987Z,26.50
2017-08-29T18:38:03.104Z,26.50
2017-08-29T18:40:30.785Z,26.40
2017-08-29T18:43:00.373Z,26.60
2017-08-29T18:45:28.085Z,26.50
2017-08-29T18:47:55.718Z,26.60
2017-08-29T18:50:23.821Z,26.50
2017-08-29T18:52:51.544Z,26.40
2017-08-29T18:55:19.575Z,26.30
2017-08-29T18:57:47.554Z,26.30
2017-08-29T19:00:15.209Z,26.20
2017-08-29T19:02:42.840Z,26.20
2017-08-29T19:05:10.868Z,26.20
2017-08-29T19:07:39.144Z,26.10
2017-08-29T19:10:07.201Z,26.00
2017-08-29T19:12:36.230Z,25.90
2017-08-29T19:15:03.929Z,25.90
2017-08-29T19:17:31.598Z,25.90
2017-08-29T19:19:59.718Z,25.90
2017-08-29T19:22:28.138Z,25.80
2017-08-29T19:24:55.794Z,25.80
2017-08-29T19:27:23.475Z,25.90
2017-08-29T19:29:51.846Z,25.80
2017-08-29T19:32:19.506Z,25.80
2017-08-29T19:34:47.189Z,25.80
2017-08-29T19:37:14.861Z,25.70
2017-08-29T19:39:43.290Z,25.70
2017-08-29T19:42:11.655Z,25.60
2017-08-29T19:44:39.293Z,25.60
2017-08-29T19:47:07.312Z,25.70
2017-08-29T19:49:35.037Z,25.60
2017-08-29T19:52:02.787Z,25.60
2017-08-29T19:54:30.933Z,25.60
2017-08-29T19:56:58.784Z,25.60
2017-08-29T19:59:26.497Z,25.60
2017-08-29T20:01:54.930Z,25.50
2017-08-29T20:04:22.629Z,25.50
2017-08-29T20:06:50.353Z,25.50
2017-08-29T20:09:18.378Z,25.50
2017-08-29T20:11:46.684Z,25.50
2017-08-29T20:14:14.367Z,25.40
2017-08-29T20:16:42.360Z,25.30
2017-08-29T20:19:12.869Z,25.30
2017-08-29T20:21:40.608Z,25.10
2017-08-29T20:24:08.666Z,25.10
2017-08-29T20:26:36.848Z,25.10
2017-08-29T20:29:04.570Z,25.10
2017-08-29T20:31:32.217Z,25.10
2017-08-29T20:34:01.275Z,25.10
2017-08-29T20:36:28.960Z,25.10
2017-08-29T20:38:56.654Z,25.10
2017-08-29T20:41:24.750Z,25.10
2017-08-29T20:43:53.510Z,25.10
2017-08-29T20:46:21.194Z,25.00
2017-08-29T20:48:50.120Z,24.80
2017-08-29T20:51:17.816Z,24.70
2017-08-29T20:53:45.530Z,24.70
2017-08-29T20:56:13.628Z,24.70
2017-08-29T20:58:41.304Z,24.70
2017-08-29T21:01:08.935Z,24.70
2017-08-29T21:03:36.984Z,24.70
2017-08-29T21:06:05.107Z,24.70
2017-08-29T21:08:32.818Z,24.70
2017-08-29T21:11:00.896Z,24.80
2017-08-29T21:13:28.581Z,24.80
2017-08-29T21:15:56.331Z,24.80
2017-08-29T21:18:24.455Z,24.70
2017-08-29T21:20:52.205Z,24.60
2017-08-29T21:23:19.886Z,24.60
2017-08-29T21:25:48.291Z,24.60
2017-08-29T21:28:15.909Z,24.50
2017-08-29T21:30:43.601Z,24.50
2017-08-29T21:33:12.413Z,24.30
2017-08-29T21:35:40.044Z,24.30
2017-08-29T21:38:07.866Z,24.30
2017-08-29T21:40:35.889Z,24.20
2017-08-29T21:43:03.598Z,24.10
2017-08-29T21:45:31.247Z,24.10
2017-08-29T21:47:59.238Z,24.10
2017-08-29T21:50:26.835Z,24.00
2017-08-29T21:52:54.705Z,23.90
2017-08-29T21:55:22.672Z,23.90
2017-08-29T21:57:50.279Z,23.90
2017-08-29T22:00:17.867Z,23.90
2017-08-29T22:02:45.818Z,23.80
2017-08-29T22:05:13.420Z,23.70
2017-08-29T22:07:41.024Z,23.60
2017-08-29T22:10:09.109Z,23.60
2017-08-29T22:12:36.716Z,23.50
2017-08-29T22:15:04.322Z,23.50
2017-08-29T22:17:32.295Z,23.40
2017-08-29T22:19:59.883Z,23.30
2017-08-29T22:22:27.487Z,23.30
2017-08-29T22:24:55.421Z,23.30
2017-08-29T22:27:23.061Z,23.30
2017-08-29T22:29:50.660Z,23.30
